Terminal Aerodrome Forecast
Issued by NWS

Home | Current Version | Previous Version | Graphics & Text | Print | Product List | Glossary Off
Versions: 1 2 3 4 5 6 7 8 9 10 11 12 13 14 15 16 17 18 19 20 21 22 23 24 25 26 27

000
FTUS43 KDDC 131739
TAFHYS
TAF
KHYS 131739Z 1318/1418 19010KT P6SM SCT025
     FM132200 18011KT P6SM BKN200
     FM140100 16008KT P6SM VCTS BKN070CB
     FM140300 17007KT P6SM BKN200=

USA.gov is the U.S. government's official web portal to all federal, state and local government web resources and services.